createdAt,value
2019-01-03T00:00:27.629Z,66.39
2019-01-03T00:01:27.631Z,66.60
2019-01-03T00:02:27.599Z,67.02
2019-01-03T00:03:27.604Z,67.02
2019-01-03T00:04:27.587Z,67.02
2019-01-03T00:05:27.577Z,66.99
2019-01-03T00:06:27.604Z,66.60
2019-01-03T00:07:27.555Z,67.54
2019-01-03T00:08:27.548Z,67.54
2019-01-03T00:09:27.547Z,67.85
2019-01-03T00:10:27.558Z,68.27
2019-01-03T00:11:27.531Z,67.85
2019-01-03T00:12:27.527Z,68.27
2019-01-03T00:13:27.499Z,68.16
2019-01-03T00:14:27.486Z,68.06
2019-01-03T00:15:27.479Z,68.38
2019-01-03T00:16:27.472Z,68.90
2019-01-03T00:17:27.500Z,68.16
2019-01-03T00:18:27.443Z,69.11
2019-01-03T00:19:27.440Z,69.32
2019-01-03T00:20:27.417Z,68.79
2019-01-03T00:21:27.425Z,68.34
2019-01-03T00:22:27.404Z,68.34
2019-01-03T00:23:27.418Z,68.55
2019-01-03T00:24:27.376Z,68.97
2019-01-03T00:25:27.419Z,69.32
2019-01-03T00:26:27.359Z,69.39
2019-01-03T00:27:27.348Z,69.70
2019-01-03T00:28:27.344Z,69.70
2019-01-03T00:29:27.362Z,70.23
2019-01-03T00:30:27.358Z,69.81
2019-01-03T00:31:27.320Z,70.78
2019-01-03T00:32:27.312Z,70.47
2019-01-03T00:33:27.294Z,70.37
2019-01-03T00:34:27.300Z,70.89
2019-01-03T00:35:27.365Z,71.20
2019-01-03T00:36:27.272Z,71.10
2019-01-03T00:37:27.255Z,70.78
2019-01-03T00:38:27.245Z,71.03
2019-01-03T00:39:27.230Z,71.62
2019-01-03T00:40:27.233Z,71.66
2019-01-03T00:41:27.223Z,71.55
2019-01-03T00:42:27.197Z,70.92
2019-01-03T00:43:27.186Z,70.89
2019-01-03T00:44:27.188Z,71.34
2019-01-03T00:45:27.166Z,70.89
2019-01-03T00:46:27.211Z,70.99
2019-01-03T00:47:27.145Z,70.99
2019-01-03T00:48:27.140Z,70.68
2019-01-03T00:49:27.133Z,71.62
2019-01-03T00:50:27.191Z,71.73
2019-01-03T00:51:27.110Z,71.73
2019-01-03T00:52:27.121Z,71.76
2019-01-03T00:53:27.238Z,71.94
2019-01-03T00:54:27.081Z,72.04
2019-01-03T00:55:27.071Z,72.49
2019-01-03T00:56:27.073Z,72.18
2019-01-03T00:57:27.114Z,72.18
2019-01-03T00:58:27.060Z,72.70
2019-01-03T00:59:27.029Z,72.70
2019-01-03T01:00:27.026Z,73.22
2019-01-03T01:01:27.006Z,72.91
2019-01-03T01:02:27.035Z,72.81
2019-01-03T01:03:27.017Z,73.26
2019-01-03T01:04:26.988Z,73.44
2019-01-03T01:05:26.990Z,73.85
2019-01-03T01:06:26.956Z,73.75
2019-01-03T01:07:26.947Z,73.75
2019-01-03T01:08:26.966Z,73.75
2019-01-03T01:09:26.923Z,73.65
2019-01-03T01:10:26.922Z,73.44
2019-01-03T01:11:26.912Z,73.02
2019-01-03T01:12:26.899Z,73.65
2019-01-03T01:13:26.904Z,73.65
2019-01-03T01:14:26.913Z,73.75
2019-01-03T01:15:26.867Z,73.54
2019-01-03T01:16:26.853Z,73.96
2019-01-03T01:17:26.849Z,74.48
2019-01-03T01:18:26.832Z,74.48
2019-01-03T01:19:26.832Z,74.80
2019-01-03T01:20:26.871Z,75.63
2019-01-03T01:21:26.808Z,75.95
2019-01-03T01:22:26.803Z,76.06
2019-01-03T01:23:26.789Z,75.74
2019-01-03T01:24:26.789Z,75.74
2019-01-03T01:25:26.782Z,75.63
2019-01-03T01:26:26.776Z,76.06
2019-01-03T01:27:26.748Z,76.06
2019-01-03T01:28:26.738Z,76.06
2019-01-03T01:29:26.719Z,76.06
2019-01-03T01:30:26.724Z,75.95
2019-01-03T01:31:26.758Z,75.95
2019-01-03T01:32:26.692Z,76.16
2019-01-03T01:33:26.683Z,76.26
2019-01-03T01:34:26.686Z,76.16
2019-01-03T01:35:26.666Z,76.40
2019-01-03T01:36:26.659Z,76.61
2019-01-03T01:37:26.672Z,76.61
2019-01-03T01:38:26.660Z,76.51
2019-01-03T01:39:26.631Z,76.40
2019-01-03T01:40:26.613Z,76.51
2019-01-03T01:41:26.608Z,77.56
2019-01-03T01:42:26.606Z,77.87
2019-01-03T01:43:26.611Z,78.19
2019-01-03T01:44:26.573Z,77.34
2019-01-03T01:45:26.565Z,77.45
2019-01-03T01:46:26.557Z,77.56
2019-01-03T01:47:26.538Z,77.03
2019-01-03T01:48:26.569Z,76.33
2019-01-03T01:49:26.524Z,76.75
2019-01-03T01:50:26.515Z,78.01
2019-01-03T01:51:26.531Z,77.48
2019-01-03T01:52:26.497Z,78.01
2019-01-03T01:53:26.480Z,77.80
2019-01-03T01:54:26.492Z,77.42
2019-01-03T01:55:26.468Z,78.15
2019-01-03T01:56:26.458Z,78.78
2019-01-03T01:57:26.438Z,80.04
2019-01-03T01:58:26.441Z,80.15
2019-01-03T01:59:26.422Z,79.93
2019-01-03T02:00:26.457Z,79.62
2019-01-03T02:01:26.409Z,79.72
2019-01-03T02:02:26.395Z,80.04
2019-01-03T02:03:26.383Z,80.25
2019-01-03T02:04:26.369Z,80.15
2019-01-03T02:05:26.370Z,80.15
2019-01-03T02:06:26.373Z,80.04
2019-01-03T02:07:26.341Z,80.57
2019-01-03T02:08:26.352Z,80.88
2019-01-03T02:09:26.316Z,80.98
2019-01-03T02:10:26.306Z,80.77
2019-01-03T02:11:26.301Z,81.09
2019-01-03T02:12:26.354Z,81.09
2019-01-03T02:13:26.274Z,80.77
2019-01-03T02:14:26.281Z,80.63
2019-01-03T02:15:26.273Z,80.21
2019-01-03T02:16:26.317Z,80.63
2019-01-03T02:17:26.285Z,80.53
2019-01-03T02:18:26.233Z,80.74
2019-01-03T02:19:26.214Z,80.53
2019-01-03T02:20:26.221Z,80.32
2019-01-03T02:21:26.217Z,80.32
2019-01-03T02:22:26.196Z,80.53
2019-01-03T02:23:26.212Z,80.32
2019-01-03T02:24:26.170Z,80.21
2019-01-03T02:25:26.173Z,80.53
2019-01-03T02:26:26.147Z,79.90
2019-01-03T02:27:26.139Z,80.00
2019-01-03T02:28:26.132Z,80.32
2019-01-03T02:29:26.137Z,80.21
2019-01-03T02:30:26.112Z,80.21
2019-01-03T02:31:26.108Z,80.42
2019-01-03T02:32:26.092Z,80.57
2019-01-03T02:33:26.082Z,80.46
2019-01-03T02:34:26.102Z,80.57
2019-01-03T02:35:26.057Z,80.35
2019-01-03T02:36:26.047Z,80.57
2019-01-03T02:37:26.047Z,80.46
2019-01-03T02:38:26.037Z,80.98
2019-01-03T02:39:26.031Z,80.57
2019-01-03T02:40:26.034Z,80.67
2019-01-03T02:41:26.002Z,80.53
2019-01-03T02:42:25.983Z,80.63
2019-01-03T02:43:25.975Z,80.67
2019-01-03T02:44:25.969Z,80.88
2019-01-03T02:45:25.971Z,80.57
2019-01-03T02:46:25.971Z,80.88
2019-01-03T02:47:25.934Z,81.20
2019-01-03T02:48:25.924Z,80.88
2019-01-03T02:49:25.913Z,81.40
2019-01-03T02:50:25.911Z,81.09
2019-01-03T02:51:25.949Z,81.20
2019-01-03T02:52:25.908Z,81.37
2019-01-03T02:53:25.886Z,81.51
2019-01-03T02:54:25.861Z,81.72
2019-01-03T02:55:25.865Z,81.57
2019-01-03T02:56:25.838Z,81.61
2019-01-03T02:57:25.877Z,81.51
2019-01-03T02:58:25.850Z,81.40
2019-01-03T02:59:25.848Z,81.72
2019-01-03T03:00:25.803Z,81.51
2019-01-03T03:01:25.794Z,81.65
2019-01-03T03:02:25.787Z,81.54
2019-01-03T03:03:25.827Z,81.72
2019-01-03T03:04:25.781Z,81.65
2019-01-03T03:05:25.753Z,81.61
2019-01-03T03:06:25.744Z,81.51
2019-01-03T03:07:25.735Z,81.40
2019-01-03T03:08:25.719Z,81.86
2019-01-03T03:09:25.738Z,81.82
2019-01-03T03:10:25.726Z,81.82
2019-01-03T03:11:25.723Z,82.14
2019-01-03T03:12:25.679Z,81.54
2019-01-03T03:13:25.676Z,81.30
2019-01-03T03:14:25.690Z,81.54
2019-01-03T03:15:25.650Z,81.23
2019-01-03T03:16:25.644Z,81.44
2019-01-03T03:17:25.626Z,81.86
2019-01-03T03:18:25.630Z,81.96
2019-01-03T03:19:25.621Z,81.44
2019-01-03T03:20:25.646Z,81.44
2019-01-03T03:21:25.592Z,81.96
2019-01-03T03:22:25.588Z,81.76
2019-01-03T03:23:25.576Z,82.28
2019-01-03T03:24:25.564Z,81.96
2019-01-03T03:25:25.567Z,81.96
2019-01-03T03:26:25.585Z,81.54
2019-01-03T03:27:25.532Z,81.51
2019-01-03T03:28:25.552Z,81.51
2019-01-03T03:29:25.537Z,81.44
2019-01-03T03:30:25.508Z,81.76
2019-01-03T03:31:25.496Z,81.76
2019-01-03T03:32:25.523Z,81.34
2019-01-03T03:33:25.467Z,81.40
2019-01-03T03:34:25.463Z,81.02
2019-01-03T03:35:25.453Z,80.77
2019-01-03T03:36:25.447Z,81.02
2019-01-03T03:37:25.445Z,81.12
2019-01-03T03:38:25.443Z,80.98
2019-01-03T03:39:25.412Z,80.46
2019-01-03T03:40:25.411Z,80.88
2019-01-03T03:41:25.397Z,81.20
2019-01-03T03:42:25.374Z,80.77
2019-01-03T03:43:25.373Z,80.88
2019-01-03T03:44:25.408Z,80.46
2019-01-03T03:45:25.348Z,80.67
2019-01-03T03:46:25.354Z,80.88
2019-01-03T03:47:25.332Z,80.57
2019-01-03T03:48:25.315Z,80.77
2019-01-03T03:49:25.309Z,80.88
2019-01-03T03:50:25.353Z,80.77
2019-01-03T03:51:25.294Z,81.12
2019-01-03T03:52:25.293Z,81.02
2019-01-03T03:53:25.270Z,81.02
2019-01-03T03:54:25.269Z,80.88
2019-01-03T03:55:25.259Z,80.88
2019-01-03T03:56:25.531Z,81.12
2019-01-03T03:57:25.226Z,80.60
2019-01-03T03:58:25.242Z,80.98
2019-01-03T03:59:25.210Z,80.71
2019-01-03T04:00:25.209Z,80.77
2019-01-03T04:01:25.197Z,80.67
2019-01-03T04:02:25.219Z,80.88
2019-01-03T04:03:25.178Z,81.02
2019-01-03T04:04:25.191Z,80.81
2019-01-03T04:05:25.166Z,81.65
2019-01-03T04:06:25.145Z,81.54
2019-01-03T04:07:25.132Z,81.40
2019-01-03T04:08:25.152Z,81.23
2019-01-03T04:09:25.121Z,81.02
2019-01-03T04:10:25.102Z,81.02
2019-01-03T04:11:25.100Z,81.02
2019-01-03T04:12:25.083Z,81.34
2019-01-03T04:13:25.078Z,81.54
2019-01-03T04:14:25.101Z,81.44
2019-01-03T04:15:25.054Z,81.93
2019-01-03T04:16:25.038Z,81.76
2019-01-03T04:17:25.065Z,81.44
2019-01-03T04:18:25.025Z,81.54
2019-01-03T04:19:25.036Z,81.96
2019-01-03T04:20:25.094Z,81.54
2019-01-03T04:21:24.992Z,82.07
2019-01-03T04:22:24.991Z,81.65
2019-01-03T04:23:24.981Z,81.76
2019-01-03T04:24:24.952Z,81.96
2019-01-03T04:25:24.952Z,81.65
2019-01-03T04:26:24.972Z,81.76
2019-01-03T04:27:24.931Z,82.59
2019-01-03T04:28:24.927Z,82.28
2019-01-03T04:29:24.913Z,82.17
2019-01-03T04:30:24.903Z,82.07
2019-01-03T04:31:24.895Z,82.07
2019-01-03T04:32:24.923Z,82.59
2019-01-03T04:33:24.870Z,82.59
2019-01-03T04:34:24.855Z,82.70
2019-01-03T04:35:24.869Z,82.59
2019-01-03T04:36:24.848Z,82.81
2019-01-03T04:37:24.834Z,82.17
2019-01-03T04:38:24.846Z,82.28
2019-01-03T04:39:24.811Z,82.17
2019-01-03T04:40:24.799Z,82.17
2019-01-03T04:41:24.802Z,82.28
2019-01-03T04:42:24.775Z,82.28
2019-01-03T04:43:24.779Z,82.17
2019-01-03T04:44:24.780Z,82.91
2019-01-03T04:45:24.740Z,82.59
2019-01-03T04:46:24.743Z,82.91
2019-01-03T04:47:24.754Z,82.81
2019-01-03T04:48:24.721Z,82.81
2019-01-03T04:49:24.708Z,82.81
2019-01-03T04:50:24.968Z,82.59
2019-01-03T04:51:24.686Z,82.59
2019-01-03T04:52:24.676Z,82.81
2019-01-03T04:53:24.679Z,83.22
2019-01-03T04:54:24.663Z,82.91
2019-01-03T04:55:24.703Z,83.64
2019-01-03T04:56:24.646Z,83.33
2019-01-03T04:57:24.625Z,83.58
2019-01-03T04:58:24.632Z,83.15
2019-01-03T04:59:24.608Z,82.95
2019-01-03T05:00:25.623Z,83.68
2019-01-03T05:01:24.627Z,84.00
2019-01-03T05:02:24.576Z,83.68
2019-01-03T05:03:24.559Z,83.68
2019-01-03T05:04:24.548Z,84.31
2019-01-03T05:05:24.539Z,83.89
2019-01-03T05:06:24.527Z,83.68
2019-01-03T05:07:24.565Z,84.63
2019-01-03T05:08:24.512Z,84.94
2019-01-03T05:09:24.503Z,83.58
2019-01-03T05:10:24.486Z,84.84
2019-01-03T05:11:24.496Z,84.63
2019-01-03T05:12:24.478Z,84.52
2019-01-03T05:13:24.530Z,84.20
2019-01-03T05:14:24.454Z,84.42
2019-01-03T05:15:24.481Z,85.15
2019-01-03T05:16:24.428Z,84.73
2019-01-03T05:17:24.435Z,84.73
2019-01-03T05:18:24.408Z,85.25
2019-01-03T05:19:24.429Z,85.36
2019-01-03T05:20:24.391Z,85.30
2019-01-03T05:21:24.406Z,84.73
2019-01-03T05:22:24.368Z,84.73
2019-01-03T05:23:24.379Z,84.77
2019-01-03T05:24:24.353Z,85.50
2019-01-03T05:25:24.383Z,85.50
2019-01-03T05:26:24.338Z,84.52
2019-01-03T05:27:24.324Z,85.40
2019-01-03T05:28:24.317Z,84.45
2019-01-03T05:29:24.311Z,84.98
2019-01-03T05:30:24.294Z,84.98
2019-01-03T05:31:24.339Z,85.30
2019-01-03T05:32:24.275Z,85.61
2019-01-03T05:33:24.276Z,85.30
2019-01-03T05:34:24.257Z,84.98
2019-01-03T05:35:24.249Z,85.08
2019-01-03T05:36:24.254Z,85.08
2019-01-03T05:37:24.253Z,85.50
2019-01-03T05:38:24.212Z,85.82
2019-01-03T05:39:24.222Z,84.98
2019-01-03T05:40:24.191Z,85.02
2019-01-03T05:41:24.187Z,85.19
2019-01-03T05:42:24.182Z,85.19
2019-01-03T05:43:24.206Z,85.33
2019-01-03T05:44:24.157Z,85.50
2019-01-03T05:45:24.154Z,85.82
2019-01-03T05:46:24.150Z,85.75
2019-01-03T05:47:24.124Z,86.38
2019-01-03T05:48:24.122Z,86.24
2019-01-03T05:49:24.185Z,85.86
2019-01-03T05:50:24.095Z,85.86
2019-01-03T05:51:24.085Z,85.82
2019-01-03T05:52:24.067Z,85.86
2019-01-03T05:53:24.106Z,85.82
2019-01-03T05:54:24.059Z,85.93
2019-01-03T05:55:24.083Z,85.75
2019-01-03T05:56:24.029Z,85.61
2019-01-03T05:57:24.032Z,85.86
2019-01-03T05:58:24.028Z,86.07
2019-01-03T05:59:24.035Z,85.93
2019-01-03T06:00:24.013Z,86.24
2019-01-03T06:01:24.027Z,85.86
2019-01-03T06:02:23.976Z,85.82
2019-01-03T06:03:23.964Z,85.82
2019-01-03T06:04:23.969Z,85.86
2019-01-03T06:05:23.942Z,86.18
2019-01-03T06:06:23.940Z,85.96
2019-01-03T06:07:23.965Z,86.13
2019-01-03T06:08:23.959Z,86.24
2019-01-03T06:09:23.901Z,85.93
2019-01-03T06:10:23.900Z,85.86
2019-01-03T06:11:23.880Z,85.93
2019-01-03T06:12:23.907Z,86.13
2019-01-03T06:13:23.893Z,85.75
2019-01-03T06:14:23.849Z,86.18
2019-01-03T06:15:23.835Z,86.07
2019-01-03T06:16:23.835Z,86.24
2019-01-03T06:17:23.824Z,86.38
2019-01-03T06:18:23.819Z,86.13
2019-01-03T06:19:23.831Z,86.03
2019-01-03T06:20:23.823Z,87.33
2019-01-03T06:21:23.789Z,87.02
2019-01-03T06:22:23.780Z,87.44
2019-01-03T06:23:23.773Z,87.19
2019-01-03T06:24:23.750Z,86.91
2019-01-03T06:25:23.778Z,87.02
2019-01-03T06:26:23.750Z,87.23
2019-01-03T06:27:23.738Z,87.02
2019-01-03T06:28:23.707Z,87.12
2019-01-03T06:29:23.766Z,87.02
2019-01-03T06:30:23.719Z,87.23
2019-01-03T06:31:23.675Z,87.12
2019-01-03T06:32:23.701Z,87.33
2019-01-03T06:33:23.666Z,87.44
2019-01-03T06:34:23.656Z,87.54
2019-01-03T06:35:23.666Z,87.44
2019-01-03T06:36:23.671Z,87.54
2019-01-03T06:37:23.657Z,87.75
2019-01-03T06:38:23.605Z,87.44
2019-01-03T06:39:23.603Z,87.33
2019-01-03T06:40:23.603Z,87.85
2019-01-03T06:41:23.605Z,88.28
2019-01-03T06:42:23.573Z,88.07
2019-01-03T06:43:23.571Z,88.17
2019-01-03T06:44:23.561Z,88.07
2019-01-03T06:45:23.538Z,88.17
2019-01-03T06:46:23.641Z,88.28
2019-01-03T06:47:23.527Z,88.80
2019-01-03T06:48:23.521Z,88.59
2019-01-03T06:49:23.501Z,88.07
2019-01-03T06:50:23.496Z,88.70
2019-01-03T06:51:23.475Z,88.80
2019-01-03T06:52:23.491Z,89.01
2019-01-03T06:53:23.462Z,88.91
2019-01-03T06:54:23.471Z,88.95
2019-01-03T06:55:23.517Z,88.49
2019-01-03T06:56:23.453Z,88.59
2019-01-03T06:57:23.415Z,89.12
2019-01-03T06:58:23.436Z,88.49
2019-01-03T06:59:23.417Z,89.01
2019-01-03T07:00:23.409Z,89.01
2019-01-03T07:01:23.410Z,88.91
2019-01-03T07:02:23.369Z,89.32
2019-01-03T07:03:23.381Z,89.86
2019-01-03T07:04:23.381Z,89.64
2019-01-03T07:05:23.523Z,89.43
2019-01-03T07:06:23.342Z,89.54
2019-01-03T07:07:23.347Z,89.96
2019-01-03T07:08:23.327Z,89.89
2019-01-03T07:09:23.396Z,89.86
2019-01-03T07:10:23.322Z,89.96
2019-01-03T07:11:23.388Z,89.96
2019-01-03T07:12:23.273Z,89.54
2019-01-03T07:13:23.263Z,89.54
2019-01-03T07:14:23.250Z,89.58
2019-01-03T07:15:23.247Z,89.43
2019-01-03T07:16:23.269Z,89.54
2019-01-03T07:17:23.218Z,89.64
2019-01-03T07:18:23.223Z,89.89
2019-01-03T07:19:23.203Z,90.11
2019-01-03T07:20:23.231Z,90.17
2019-01-03T07:21:27.266Z,90.48
2019-01-03T07:22:23.163Z,90.27
2019-01-03T07:23:23.172Z,90.31
2019-01-03T07:24:23.158Z,90.06
2019-01-03T07:25:23.182Z,90.31
2019-01-03T07:26:23.142Z,90.00
2019-01-03T07:27:23.160Z,90.31
2019-01-03T07:28:23.109Z,90.21
2019-01-03T07:29:23.118Z,90.31
2019-01-03T07:30:23.106Z,90.94
2019-01-03T07:31:23.104Z,90.84
2019-01-03T07:32:23.116Z,90.59
2019-01-03T07:33:23.101Z,91.01
2019-01-03T07:34:23.053Z,91.01
2019-01-03T07:35:23.041Z,90.59
2019-01-03T07:36:23.043Z,90.91
2019-01-03T07:37:23.034Z,90.59
2019-01-03T07:38:23.005Z,90.80
2019-01-03T07:39:23.067Z,90.80
2019-01-03T07:40:22.988Z,90.91
2019-01-03T07:41:23.000Z,90.59
2019-01-03T07:42:22.972Z,90.17
2019-01-03T07:43:22.961Z,90.27
2019-01-03T07:44:22.948Z,90.06
2019-01-03T07:45:22.970Z,90.06
2019-01-03T07:46:22.921Z,90.27
2019-01-03T07:47:22.918Z,89.54
2019-01-03T07:48:22.917Z,90.27
2019-01-03T07:49:22.929Z,90.31
2019-01-03T07:50:22.934Z,90.63
2019-01-03T07:51:22.933Z,90.69
2019-01-03T07:52:22.870Z,90.69
2019-01-03T07:53:22.853Z,91.01
2019-01-03T07:54:22.847Z,90.69
2019-01-03T07:55:22.831Z,90.27
2019-01-03T07:56:22.841Z,89.96
2019-01-03T07:57:22.848Z,90.17
2019-01-03T07:58:22.804Z,90.48
2019-01-03T07:59:22.817Z,90.48
2019-01-03T08:00:22.781Z,90.69
2019-01-03T08:01:22.782Z,90.59
2019-01-03T08:02:22.770Z,90.69
2019-01-03T08:03:22.788Z,90.84
2019-01-03T08:04:22.752Z,90.48
2019-01-03T08:05:22.765Z,90.91
2019-01-03T08:06:22.740Z,90.80
2019-01-03T08:07:22.720Z,90.80
2019-01-03T08:08:22.719Z,90.38
2019-01-03T08:09:22.729Z,90.69
2019-01-03T08:10:22.692Z,90.59
2019-01-03T08:11:22.684Z,90.66
2019-01-03T08:12:22.677Z,90.44
2019-01-03T08:13:22.649Z,90.12
2019-01-03T08:14:22.747Z,90.66
2019-01-03T08:15:22.667Z,90.34
2019-01-03T08:16:22.623Z,92.08
2019-01-03T08:17:22.615Z,91.49
2019-01-03T08:18:22.608Z,90.92
2019-01-03T08:19:22.591Z,90.51
2019-01-03T08:20:22.579Z,90.09
2019-01-03T08:21:22.606Z,90.19
2019-01-03T08:22:22.565Z,89.87
2019-01-03T08:23:22.562Z,89.87
2019-01-03T08:24:22.549Z,89.87
2019-01-03T08:25:22.533Z,89.87
2019-01-03T08:26:22.518Z,89.98
2019-01-03T08:27:22.537Z,89.77
2019-01-03T08:28:22.499Z,90.19
2019-01-03T08:29:22.501Z,90.30
2019-01-03T08:30:22.482Z,90.40
2019-01-03T08:31:22.473Z,90.19
2019-01-03T08:32:22.504Z,89.98
2019-01-03T08:33:22.452Z,90.19
2019-01-03T08:34:22.444Z,89.87
2019-01-03T08:35:22.435Z,90.40
2019-01-03T08:36:22.433Z,90.40
2019-01-03T08:37:22.408Z,90.09
2019-01-03T08:38:22.437Z,90.40
2019-01-03T08:39:22.394Z,90.19
2019-01-03T08:40:22.393Z,90.05
2019-01-03T08:41:22.386Z,90.15
2019-01-03T08:42:22.389Z,89.84
2019-01-03T08:43:27.047Z,89.87
2019-01-03T08:44:22.385Z,90.15
2019-01-03T08:45:22.329Z,90.36
2019-01-03T08:46:22.406Z,89.73
2019-01-03T08:47:22.367Z,89.77
2019-01-03T08:48:22.300Z,90.30
2019-01-03T08:49:22.294Z,90.19
2019-01-03T08:50:22.317Z,90.09
2019-01-03T08:51:22.269Z,90.82
2019-01-03T08:52:22.268Z,90.92
2019-01-03T08:53:22.248Z,91.14
2019-01-03T08:54:22.249Z,90.99
2019-01-03T08:55:22.227Z,91.14
2019-01-03T08:56:22.296Z,90.61
2019-01-03T08:57:22.206Z,91.24
2019-01-03T08:58:22.201Z,90.99
2019-01-03T08:59:22.191Z,90.89
2019-01-03T09:00:22.180Z,90.99
2019-01-03T09:01:22.209Z,91.20
2019-01-03T09:02:22.168Z,90.99
2019-01-03T09:03:22.146Z,91.41
2019-01-03T09:04:22.139Z,91.20
2019-01-03T09:05:22.159Z,90.99
2019-01-03T09:06:22.139Z,91.09
2019-01-03T09:07:22.142Z,91.09
2019-01-03T09:08:22.100Z,91.09
2019-01-03T09:09:22.094Z,91.27
2019-01-03T09:10:22.083Z,90.70
2019-01-03T09:11:22.075Z,90.53
2019-01-03T09:12:22.067Z,90.28
2019-01-03T09:13:22.091Z,89.65
2019-01-03T09:14:22.048Z,89.02
2019-01-03T09:15:22.026Z,89.34
2019-01-03T09:16:22.023Z,89.02
2019-01-03T09:17:22.009Z,88.56
2019-01-03T09:18:22.002Z,88.46
2019-01-03T09:19:22.059Z,88.71
2019-01-03T09:20:21.987Z,88.77
2019-01-03T09:21:21.972Z,88.67
2019-01-03T09:22:21.969Z,88.24
2019-01-03T09:23:21.963Z,88.04
2019-01-03T09:24:21.947Z,88.35
2019-01-03T09:25:21.958Z,87.93
2019-01-03T09:26:21.925Z,88.35
2019-01-03T09:27:21.909Z,88.46
2019-01-03T09:28:21.919Z,88.35
2019-01-03T09:29:21.932Z,88.67
2019-01-03T09:30:21.882Z,88.24
2019-01-03T09:31:21.959Z,88.62
2019-01-03T09:32:21.874Z,88.46
2019-01-03T09:33:21.861Z,88.24
2019-01-03T09:34:21.887Z,88.56
2019-01-03T09:35:21.834Z,88.46
2019-01-03T09:36:21.855Z,88.46
2019-01-03T09:37:26.924Z,88.77
2019-01-03T09:38:22.856Z,88.87
2019-01-03T09:39:21.906Z,89.19
2019-01-03T09:40:21.819Z,89.61
2019-01-03T09:41:21.824Z,89.29
2019-01-03T09:42:21.815Z,89.57
2019-01-03T09:43:21.802Z,89.40
2019-01-03T09:44:21.738Z,88.94
2019-01-03T09:45:21.763Z,88.84
2019-01-03T09:46:21.738Z,88.94
2019-01-03T09:47:21.716Z,89.57
2019-01-03T09:48:21.736Z,89.04
2019-01-03T09:49:21.688Z,89.78
2019-01-03T09:50:21.671Z,89.32
2019-01-03T09:51:21.682Z,88.90
2019-01-03T09:52:21.664Z,88.90
2019-01-03T09:53:21.658Z,89.32
2019-01-03T09:54:21.708Z,89.22
2019-01-03T09:55:21.639Z,89.48
2019-01-03T09:56:21.626Z,89.38
2019-01-03T09:57:21.609Z,89.07
2019-01-03T09:58:21.608Z,89.07
2019-01-03T09:59:21.592Z,89.28
2019-01-03T10:00:21.610Z,88.50
2019-01-03T10:01:21.586Z,88.54
2019-01-03T10:02:21.553Z,88.82
2019-01-03T10:03:21.544Z,89.23
2019-01-03T10:04:21.535Z,89.03
2019-01-03T10:05:21.573Z,88.71
2019-01-03T10:06:21.563Z,88.50
2019-01-03T10:07:21.504Z,88.92
2019-01-03T10:08:21.492Z,88.99
2019-01-03T10:09:21.485Z,88.53
2019-01-03T10:10:21.472Z,88.21
2019-01-03T10:11:21.503Z,88.21
2019-01-03T10:12:21.480Z,87.86
2019-01-03T10:13:21.442Z,87.76
2019-01-03T10:14:21.460Z,87.59
2019-01-03T10:15:21.416Z,86.82
2019-01-03T10:16:21.407Z,87.65
2019-01-03T10:17:21.420Z,87.45
2019-01-03T10:18:21.386Z,87.45
2019-01-03T10:19:21.377Z,87.65
2019-01-03T10:20:21.547Z,87.76
2019-01-03T10:21:21.486Z,87.55
2019-01-03T10:22:21.350Z,87.82
2019-01-03T10:23:21.367Z,87.93
2019-01-03T10:24:21.321Z,87.93
2019-01-03T10:25:21.329Z,87.51
2019-01-03T10:26:21.301Z,87.61
2019-01-03T10:27:21.310Z,87.71
2019-01-03T10:28:21.298Z,87.93
2019-01-03T10:29:21.302Z,87.82
2019-01-03T10:30:21.268Z,87.57
2019-01-03T10:31:21.267Z,87.61
2019-01-03T10:32:21.260Z,87.82
2019-01-03T10:33:21.229Z,87.57
2019-01-03T10:34:21.245Z,87.57
2019-01-03T10:35:21.241Z,87.68
2019-01-03T10:36:24.241Z,87.99
2019-01-03T10:37:21.197Z,87.37
2019-01-03T10:38:21.195Z,87.26
2019-01-03T10:39:21.173Z,87.78
2019-01-03T10:40:21.155Z,87.57
2019-01-03T10:41:21.181Z,87.63
2019-01-03T10:42:21.195Z,87.63
2019-01-03T10:43:21.146Z,87.84
2019-01-03T10:44:21.205Z,87.60
2019-01-03T10:45:21.114Z,87.63
2019-01-03T10:46:21.099Z,86.91
2019-01-03T10:47:21.129Z,86.76
2019-01-03T10:48:21.082Z,86.45
2019-01-03T10:49:21.062Z,86.45
2019-01-03T10:50:21.053Z,86.87
2019-01-03T10:51:21.166Z,86.87
2019-01-03T10:52:21.044Z,86.72
2019-01-03T10:53:21.072Z,86.76
2019-01-03T10:54:21.031Z,87.18
2019-01-03T10:55:21.099Z,86.66
2019-01-03T10:56:20.986Z,86.66
2019-01-03T10:57:20.978Z,87.39
2019-01-03T10:58:20.971Z,87.60
2019-01-03T10:59:20.999Z,87.60
2019-01-03T11:00:20.975Z,87.28
2019-01-03T11:01:20.965Z,87.60
2019-01-03T11:02:20.931Z,87.91
2019-01-03T11:03:20.913Z,87.91
2019-01-03T11:04:20.938Z,88.12
2019-01-03T11:05:20.902Z,87.55
2019-01-03T11:06:20.903Z,86.83
2019-01-03T11:07:20.878Z,86.72
2019-01-03T11:08:20.871Z,86.37
2019-01-03T11:09:20.852Z,86.30
2019-01-03T11:10:21.042Z,86.41
2019-01-03T11:11:21.181Z,86.30
2019-01-03T11:12:20.953Z,86.58
2019-01-03T11:13:20.848Z,86.41
2019-01-03T11:14:20.797Z,86.47
2019-01-03T11:15:20.795Z,86.47
2019-01-03T11:16:20.818Z,86.58
2019-01-03T11:17:20.782Z,86.27
2019-01-03T11:18:20.762Z,85.29
2019-01-03T11:19:20.949Z,85.39
2019-01-03T11:20:20.739Z,85.08
2019-01-03T11:21:21.882Z,84.98
2019-01-03T11:22:20.753Z,84.98
2019-01-03T11:23:20.715Z,85.08
2019-01-03T11:24:20.695Z,84.98
2019-01-03T11:25:20.687Z,84.98
2019-01-03T11:26:20.672Z,85.50
2019-01-03T11:27:20.662Z,84.77
2019-01-03T11:28:20.705Z,84.52
2019-01-03T11:29:20.640Z,84.42
2019-01-03T11:30:20.638Z,84.52
2019-01-03T11:31:20.620Z,83.58
2019-01-03T11:32:20.616Z,83.86
2019-01-03T11:33:20.600Z,85.14
2019-01-03T11:34:20.615Z,83.65
2019-01-03T11:35:20.586Z,84.00
2019-01-03T11:36:20.570Z,84.06
2019-01-03T11:37:20.560Z,83.23
2019-01-03T11:38:20.548Z,83.13
2019-01-03T11:39:20.536Z,83.03
2019-01-03T11:40:20.581Z,83.54
2019-01-03T11:41:20.512Z,83.03
2019-01-03T11:42:20.496Z,83.34
2019-01-03T11:43:20.493Z,82.89
2019-01-03T11:44:20.480Z,81.26
2019-01-03T11:45:20.475Z,82.99
2019-01-03T11:46:20.490Z,82.15
2019-01-03T11:47:20.467Z,81.74
2019-01-03T11:48:20.440Z,80.80
2019-01-03T11:49:20.430Z,80.29
2019-01-03T11:50:20.416Z,80.87
2019-01-03T11:51:20.402Z,80.49
2019-01-03T11:52:20.419Z,80.18
2019-01-03T11:53:20.387Z,80.29
2019-01-03T11:54:20.377Z,79.66
2019-01-03T11:55:20.361Z,79.66
2019-01-03T11:56:20.350Z,79.76
2019-01-03T11:57:20.344Z,79.35
2019-01-03T11:58:20.371Z,79.35
2019-01-03T11:59:20.314Z,78.83
2019-01-03T12:00:20.317Z,78.62
2019-01-03T12:01:20.303Z,78.62
2019-01-03T12:02:25.529Z,78.41
2019-01-03T12:03:21.307Z,78.93
2019-01-03T12:04:20.286Z,78.10
2019-01-03T12:05:20.254Z,78.93
2019-01-03T12:06:20.240Z,77.69
2019-01-03T12:07:20.257Z,78.38
2019-01-03T12:08:20.252Z,77.86
2019-01-03T12:09:20.244Z,77.69
2019-01-03T12:10:20.194Z,77.86
2019-01-03T12:11:20.189Z,77.75
2019-01-03T12:12:20.179Z,77.03
2019-01-03T12:13:20.162Z,77.34
2019-01-03T12:14:20.154Z,76.82
2019-01-03T12:15:20.187Z,76.92
2019-01-03T12:16:20.141Z,76.06
2019-01-03T12:17:20.125Z,75.88
2019-01-03T12:18:20.157Z,75.95
2019-01-03T12:19:20.126Z,75.32
2019-01-03T12:20:20.097Z,76.06
2019-01-03T12:21:20.141Z,75.95
2019-01-03T12:22:20.075Z,75.54
2019-01-03T12:23:20.060Z,75.64
2019-01-03T12:24:20.090Z,74.60
2019-01-03T12:25:20.044Z,75.01
2019-01-03T12:26:20.026Z,75.12
2019-01-03T12:27:20.039Z,75.74
2019-01-03T12:28:20.005Z,75.36
2019-01-03T12:29:20.002Z,75.26
2019-01-03T12:30:20.038Z,76.26
2019-01-03T12:31:20.045Z,75.54
2019-01-03T12:32:19.998Z,75.95
2019-01-03T12:33:19.963Z,76.37
2019-01-03T12:34:19.945Z,75.98
2019-01-03T12:35:20.001Z,75.98
2019-01-03T12:36:19.938Z,74.91
2019-01-03T12:37:19.919Z,73.91
2019-01-03T12:38:19.923Z,74.01
2019-01-03T12:39:19.903Z,74.08
2019-01-03T12:40:19.890Z,73.87
2019-01-03T12:41:19.911Z,73.87
2019-01-03T12:42:19.867Z,75.01
2019-01-03T12:43:19.888Z,74.39
2019-01-03T12:44:19.870Z,75.22
2019-01-03T12:45:19.829Z,73.97
2019-01-03T12:46:19.817Z,73.91
2019-01-03T12:47:19.812Z,74.91
2019-01-03T12:48:19.801Z,74.91
2019-01-03T12:49:19.814Z,74.70
2019-01-03T12:50:19.781Z,74.11
2019-01-03T12:51:19.790Z,73.97
2019-01-03T12:52:19.759Z,74.22